Time;durP1;ratioP1;P1;durP2;ratioP2;P2;SDS_P1;SDS_P2;PMS_P1;PMS_P2;Temp;Humidity;BMP_temperature;BMP_pressure;BME280_temperature;BME280_humidity;BME280_pressure;Samples;Min_cycle;Max_cycle;Signal;HPM_P1;HPM_P2
2023/12/21 00:01:34;;;;;;;7.00;2.90;;;;;;;3.88;83.93;98739.08;103561;1256;107036;-72
2023/12/21 00:04:02;;;;;;;9.30;3.00;;;;;;;3.89;83.94;98737.33;103039;1256;137401;-72
2023/12/21 00:06:29;;;;;;;7.80;3.60;;;;;;;3.94;84.00;98739.59;103227;1253;107598;-73
2023/12/21 00:08:56;;;;;;;9.90;3.40;;;;;;;3.96;83.96;98738.68;103074;1256;95103;-71
2023/12/21 00:11:23;;;;;;;4.90;3.00;;;;;;;3.99;83.85;98734.46;102997;1256;137346;-74
2023/12/21 00:13:50;;;;;;;12.40;3.60;;;;;;;3.99;83.80;98732.23;103054;1256;106643;-73
2023/12/21 00:16:17;;;;;;;7.40;3.60;;;;;;;3.97;83.74;98730.06;103058;1256;137363;-73
2023/12/21 00:18:45;;;;;;;8.80;3.60;;;;;;;3.97;83.82;98726.46;103172;1256;107837;-72
2023/12/21 00:21:11;;;;;;;8.80;3.50;;;;;;;3.94;83.77;98725.84;103197;1257;137586;-73
2023/12/21 00:23:38;;;;;;;7.70;3.30;;;;;;;3.91;83.87;98718.67;103189;1256;108266;-73
2023/12/21 00:26:05;;;;;;;11.80;3.50;;;;;;;3.92;83.79;98721.77;103179;1256;107488;-71
2023/12/21 00:28:33;;;;;;;7.10;2.90;;;;;;;3.93;84.00;98713.83;103101;1256;138697;-73
2023/12/21 00:31:00;;;;;;;9.00;3.20;;;;;;;3.96;83.87;98711.34;103181;1256;107253;-72
2023/12/21 00:33:28;;;;;;;7.70;3.60;;;;;;;3.99;84.00;98709.90;103238;1253;138354;-73
2023/12/21 00:35:55;;;;;;;8.60;3.80;;;;;;;3.97;83.67;98699.11;103338;1256;109006;-73
2023/12/21 00:38:21;;;;;;;12.00;4.00;;;;;;;3.96;83.73;98698.27;103355;1256;109373;-73
2023/12/21 00:40:49;;;;;;;9.30;3.80;;;;;;;3.94;83.71;98704.49;103081;1253;139094;-73
2023/12/21 00:43:19;;;;;;;10.40;4.20;;;;;;;3.91;83.92;98707.54;103298;1253;107606;-73
2023/12/21 00:45:46;;;;;;;7.50;3.80;;;;;;;3.86;83.83;98710.08;103148;1254;138491;-72
2023/12/21 00:48:14;;;;;;;8.40;3.30;;;;;;;3.85;84.19;98701.86;103284;1250;108960;-73
2023/12/21 00:50:42;;;;;;;6.10;3.20;;;;;;;3.83;83.94;98696.41;103366;1253;108003;-74
2023/12/21 00:53:09;;;;;;;8.20;3.20;;;;;;;3.84;84.14;98699.31;103283;1253;137729;-72
2023/12/21 00:55:38;;;;;;;10.70;3.70;;;;;;;3.87;84.35;98702.84;103349;1256;108142;-72
2023/12/21 00:58:05;;;;;;;10.50;4.00;;;;;;;3.88;84.15;98709.02;103278;1251;138324;-72
2023/12/21 01:00:32;;;;;;;12.30;4.30;;;;;;;3.89;84.16;98714.11;103393;1251;107983;-72
2023/12/21 01:02:59;;;;;;;10.40;4.10;;;;;;;3.90;84.50;98709.61;103303;1257;107046;-73
2023/12/21 01:05:26;;;;;;;9.00;4.60;;;;;;;3.92;84.43;98701.63;103129;1256;136763;-73
2023/12/21 01:07:53;;;;;;;10.20;4.70;;;;;;;3.88;84.52;98692.48;103220;1253;107925;-73
2023/12/21 01:10:20;;;;;;;9.70;4.00;;;;;;;3.88;84.30;98696.95;102900;1251;136942;-73
2023/12/21 01:12:47;;;;;;;9.30;3.80;;;;;;;3.88;84.41;98695.08;103251;1253;110436;-72
2023/12/21 01:15:15;;;;;;;8.40;3.80;;;;;;;3.88;84.60;98685.94;102980;1257;137798;-73
2023/12/21 01:17:42;;;;;;;12.50;4.10;;;;;;;3.92;84.26;98694.23;103117;1253;95049;-72
2023/12/21 01:20:12;;;;;;;14.20;4.10;;;;;;;3.94;84.39;98691.62;103140;1252;107656;-73
2023/12/21 01:22:39;;;;;;;8.80;3.20;;;;;;;3.93;84.38;98682.54;104441;1254;138783;-71
2023/12/21 01:25:07;;;;;;;9.20;4.80;;;;;;;3.92;84.21;98677.58;103868;1256;108003;-73
2023/12/21 01:27:34;;;;;;;12.50;4.70;;;;;;;3.94;84.18;98678.20;102955;1256;138920;-73
2023/12/21 01:30:01;;;;;;;11.30;4.40;;;;;;;3.94;83.99;98665.81;103069;1255;96506;-73
2023/12/21 01:32:28;;;;;;;11.20;4.40;;;;;;;3.92;84.00;98668.27;103060;1253;107640;-71
2023/12/21 01:34:55;;;;;;;13.00;5.00;;;;;;;3.89;84.02;98667.70;103106;1253;138611;-73
2023/12/21 01:37:22;;;;;;;9.50;4.30;;;;;;;3.84;84.14;98663.56;103088;1256;110108;-73
2023/12/21 01:39:49;;;;;;;9.00;4.30;;;;;;;3.79;84.29;98660.27;102975;1256;137779;-73
2023/12/21 01:42:16;;;;;;;10.60;4.30;;;;;;;3.79;84.46;98651.02;103123;1253;96707;-73
2023/12/21 01:44:43;;;;;;;11.50;4.00;;;;;;;3.78;84.66;98648.80;103135;1254;107476;-73
2023/12/21 01:47:12;;;;;;;9.80;3.70;;;;;;;3.81;84.92;98650.77;102946;1254;138339;-72
2023/12/21 01:49:39;;;;;;;11.70;4.10;;;;;;;3.86;84.99;98650.45;103229;1254;110439;-72
2023/12/21 01:52:07;;;;;;;9.80;4.70;;;;;;;3.88;84.75;98652.08;103052;1254;137457;-74
2023/12/21 01:54:35;;;;;;;13.90;4.50;;;;;;;3.90;84.78;98652.88;103189;1251;97084;-72
2023/12/21 01:57:02;;;;;;;13.10;4.60;;;;;;;3.91;84.94;98645.43;103209;1254;107770;-72
2023/12/21 01:59:30;;;;;;;13.90;4.50;;;;;;;3.92;84.85;98645.92;103033;1257;96453;-73
2023/12/21 02:02:01;;;;;;;10.80;4.40;;;;;;;3.92;84.71;98643.89;103320;1254;109397;-72
2023/12/21 02:04:28;;;;;;;11.00;4.90;;;;;;;3.89;84.92;98638.11;103135;1256;138443;-72
2023/12/21 02:06:56;;;;;;;13.80;5.30;;;;;;;3.88;84.90;98633.86;103069;1256;96545;-72
2023/12/21 02:09:24;;;;;;;9.10;4.40;;;;;;;3.85;84.88;98633.95;103154;1255;138221;-73
2023/12/21 02:11:50;;;;;;;14.10;4.80;;;;;;;3.82;84.86;98630.44;103220;1256;96487;-72
2023/12/21 02:14:17;;;;;;;9.50;3.90;;;;;;;3.80;85.00;98625.02;103266;1251;110996;-72
2023/12/21 02:16:50;;;;;;;8.40;3.50;;;;;;;3.78;84.95;98619.58;103064;1254;137740;-73
2023/12/21 02:19:19;;;;;;;11.00;4.30;;;;;;;3.77;84.90;98618.71;103390;1257;97130;-73
2023/12/21 02:21:48;;;;;;;12.40;4.00;;;;;;;3.80;85.05;98615.90;103110;1253;138727;-73
2023/12/21 02:24:17;;;;;;;9.30;3.80;;;;;;;3.84;85.36;98613.88;103166;1254;96338;-72
2023/12/21 02:26:44;;;;;;;11.30;4.60;;;;;;;3.90;85.28;98613.14;103341;1253;109827;-73
2023/12/21 02:29:11;;;;;;;8.10;4.50;;;;;;;3.97;85.01;98613.46;103128;1254;137612;-73
2023/12/21 02:31:38;;;;;;;12.20;4.80;;;;;;;4.03;85.05;98608.62;103280;1254;96477;-73
2023/12/21 02:34:07;;;;;;;10.20;4.50;;;;;;;4.03;84.73;98595.40;103080;1256;137743;-73
2023/12/21 02:36:34;;;;;;;12.40;4.80;;;;;;;4.07;84.54;98598.85;103268;1251;97288;-73
2023/12/21 02:39:01;;;;;;;14.70;4.90;;;;;;;4.06;84.37;98593.90;103231;1253;109344;-73
2023/12/21 02:41:28;;;;;;;10.60;4.30;;;;;;;4.03;84.44;98591.77;103070;1256;137333;-73
2023/12/21 02:43:55;;;;;;;9.10;3.70;;;;;;;4.04;84.47;98580.73;103355;1253;96466;-73
2023/12/21 02:46:25;;;;;;;12.80;4.00;;;;;;;4.06;84.38;98582.39;103173;1256;138532;-73
2023/12/21 02:48:54;;;;;;;9.00;3.90;;;;;;;4.07;84.50;98572.05;103282;1253;96447;-73
2023/12/21 02:51:22;;;;;;;8.90;4.00;;;;;;;4.09;84.13;98571.62;103193;1253;138100;-73
2023/12/21 02:53:49;;;;;;;9.20;3.70;;;;;;;4.12;84.21;98562.41;103301;1254;109975;-74
2023/12/21 02:56:16;;;;;;;10.40;4.80;;;;;;;4.13;84.35;98557.05;103362;1256;96958;-72
2023/12/21 02:58:43;;;;;;;11.50;4.80;;;;;;;4.15;84.23;98552.52;103202;1256;136949;-74
2023/12/21 03:01:10;;;;;;;9.50;4.90;;;;;;;4.17;84.22;98551.05;103266;1257;96451;-74
2023/12/21 03:03:37;;;;;;;14.30;4.70;;;;;;;4.13;84.04;98551.02;103189;1253;136918;-73
2023/12/21 03:06:05;;;;;;;11.40;4.40;;;;;;;4.10;84.00;98543.20;103205;1256;107321;-73
2023/12/21 03:08:32;;;;;;;9.50;3.90;;;;;;;4.11;84.13;98543.86;103252;1251;96982;-72
2023/12/21 03:10:59;;;;;;;9.50;3.80;;;;;;;4.10;83.80;98531.67;103052;1256;139027;-72
2023/12/21 03:13:26;;;;;;;10.40;3.90;;;;;;;4.12;83.94;98523.34;103176;1259;96453;-73
2023/12/21 03:15:53;;;;;;;13.80;3.90;;;;;;;4.14;83.85;98517.63;103214;1255;139071;-74
2023/12/21 03:18:19;;;;;;;12.00;4.50;;;;;;;4.19;84.03;98507.48;103196;1253;106733;-74
2023/12/21 03:20:47;;;;;;;10.90;4.50;;;;;;;4.22;83.92;98501.88;103090;1256;96522;-71
2023/12/21 03:23:14;;;;;;;11.80;4.60;;;;;;;4.17;83.63;98496.01;102999;1256;138141;-74
2023/12/21 03:25:41;;;;;;;10.40;3.90;;;;;;;4.12;83.88;98488.78;103315;1252;96581;-74
2023/12/21 03:28:10;;;;;;;7.30;3.10;;;;;;;4.10;83.67;98488.33;103176;1255;138376;-74
2023/12/21 03:30:37;;;;;;;9.20;3.80;;;;;;;4.08;83.71;98489.10;103109;1257;108669;-73
2023/12/21 03:33:05;;;;;;;7.90;3.00;;;;;;;4.09;83.82;98480.48;103174;1254;97056;-73
2023/12/21 03:35:32;;;;;;;9.20;3.30;;;;;;;4.09;83.73;98479.42;103083;1256;108460;-72
2023/12/21 03:37:59;;;;;;;13.30;3.80;;;;;;;4.13;84.11;98474.84;103145;1257;96320;-72
2023/12/21 03:40:26;;;;;;;8.70;3.40;;;;;;;4.14;83.69;98472.58;103089;1256;137265;-73
2023/12/21 03:42:54;;;;;;;11.10;4.20;;;;;;;4.13;83.77;98468.98;103125;1256;108647;-73
2023/12/21 03:45:21;;;;;;;9.90;3.90;;;;;;;4.14;83.97;98469.48;102953;1256;137402;-72
2023/12/21 03:47:48;;;;;;;7.60;3.10;;;;;;;4.14;83.64;98469.66;102466;1254;1003294;-73
2023/12/21 03:50:15;;;;;;;9.80;3.50;;;;;;;4.08;83.67;98462.60;103248;1256;96519;-72
2023/12/21 03:52:42;;;;;;;8.10;2.90;;;;;;;4.05;83.67;98452.08;103125;1255;139564;-73
2023/12/21 03:55:10;;;;;;;10.90;3.40;;;;;;;4.02;83.70;98446.99;103120;1257;108824;-73
2023/12/21 03:57:37;;;;;;;10.40;3.00;;;;;;;4.02;83.85;98434.96;102978;1257;139139;-73
2023/12/21 04:00:06;;;;;;;8.60;3.10;;;;;;;4.03;84.16;98432.54;103726;1257;106779;-73
2023/12/21 04:02:34;;;;;;;7.00;3.30;;;;;;;4.04;84.02;98435.77;103199;1255;96456;-73
2023/12/21 04:05:01;;;;;;;9.60;3.30;;;;;;;4.02;83.95;98433.76;102432;1257;1003520;-71
2023/12/21 04:07:28;;;;;;;7.10;3.30;;;;;;;3.99;83.92;98431.99;103297;1256;107468;-73
2023/12/21 04:09:55;;;;;;;8.60;3.40;;;;;;;3.96;84.19;98429.36;103160;1256;137386;-73
2023/12/21 04:12:22;;;;;;;7.30;3.20;;;;;;;3.95;84.27;98423.02;103111;1257;106107;-73
2023/12/21 04:14:49;;;;;;;9.30;3.30;;;;;;;3.89;84.54;98424.40;103196;1254;96463;-72
2023/12/21 04:17:16;;;;;;;8.90;3.70;;;;;;;3.88;84.67;98423.59;103162;1254;139211;-73
2023/12/21 04:19:43;;;;;;;10.00;4.00;;;;;;;3.86;85.12;98422.95;103205;1254;107046;-73
2023/12/21 04:22:10;;;;;;;8.40;3.50;;;;;;;3.80;84.96;98407.02;103127;1254;138594;-73
2023/12/21 04:24:37;;;;;;;9.10;3.60;;;;;;;3.85;85.21;98415.61;102477;1254;1002458;-73
2023/12/21 04:27:06;;;;;;;8.70;3.50;;;;;;;3.85;85.47;98412.50;103345;1255;96543;-73
2023/12/21 04:29:33;;;;;;;9.70;3.70;;;;;;;3.85;85.38;98408.38;103366;1256;110986;-72
2023/12/21 04:32:00;;;;;;;12.20;3.90;;;;;;;3.86;85.43;98406.29;103166;1256;108855;-72
2023/12/21 04:34:29;;;;;;;11.30;3.40;;;;;;;3.90;85.72;98398.23;103018;1254;138138;-72
2023/12/21 04:36:56;;;;;;;9.30;3.80;;;;;;;3.97;85.81;98398.52;103158;1254;107911;-72
2023/12/21 04:39:23;;;;;;;9.80;3.60;;;;;;;4.01;85.60;98388.57;103096;1256;137433;-73
2023/12/21 04:41:52;;;;;;;10.10;3.80;;;;;;;4.01;85.36;98388.39;103174;1256;109973;-74
2023/12/21 04:44:19;;;;;;;7.10;3.70;;;;;;;4.01;85.34;98381.02;103217;1254;107925;-74
2023/12/21 04:46:48;;;;;;;9.30;3.80;;;;;;;4.06;85.61;98375.83;103167;1252;136943;-73
2023/12/21 04:49:19;;;;;;;8.70;3.90;;;;;;;4.09;85.81;98377.27;103134;1259;107858;-73
2023/12/21 04:51:46;;;;;;;9.40;3.80;;;;;;;4.12;85.78;98379.21;103297;1254;138192;-72
2023/12/21 04:54:13;;;;;;;6.30;3.20;;;;;;;4.08;85.28;98374.04;103230;1255;109058;-74
2023/12/21 04:56:42;;;;;;;7.20;3.60;;;;;;;4.01;85.28;98366.59;103230;1254;108035;-73
2023/12/21 04:59:10;;;;;;;6.40;3.40;;;;;;;3.92;85.34;98359.13;103220;1254;137650;-73
2023/12/21 05:01:36;;;;;;;8.90;3.50;;;;;;;3.87;85.47;98355.17;103243;1251;106961;-73
2023/12/21 05:04:07;;;;;;;6.20;3.30;;;;;;;3.84;85.88;98351.52;103010;1260;138543;-74
2023/12/21 05:06:34;;;;;;;6.70;3.20;;;;;;;3.78;85.84;98351.91;103244;1257;109932;-74
2023/12/21 05:09:03;;;;;;;6.50;3.30;;;;;;;3.73;86.02;98348.46;103138;1255;107545;-73
2023/12/21 05:11:30;;;;;;;7.40;3.20;;;;;;;3.70;86.40;98338.45;103107;1251;138855;-72
2023/12/21 05:13:57;;;;;;;6.50;3.60;;;;;;;3.69;86.58;98333.49;103246;1257;107330;-73
2023/12/21 05:16:24;;;;;;;8.10;3.70;;;;;;;3.71;86.52;98326.20;103075;1256;137159;-73
2023/12/21 05:18:51;;;;;;;8.90;3.60;;;;;;;3.72;86.77;98325.13;103241;1257;109923;-72
2023/12/21 05:21:18;;;;;;;6.30;3.40;;;;;;;3.71;86.67;98325.50;103094;1254;139014;-73
2023/12/21 05:23:45;;;;;;;8.10;3.40;;;;;;;3.70;86.74;98316.60;103119;1251;96338;-73
2023/12/21 05:26:14;;;;;;;6.90;3.50;;;;;;;3.67;87.38;98311.23;103012;1257;106098;-73
2023/12/21 05:28:42;;;;;;;8.10;3.70;;;;;;;3.60;87.35;98303.36;102960;1254;137848;-74
2023/12/21 05:31:10;;;;;;;6.30;3.30;;;;;;;3.62;87.55;98307.79;103173;1251;109982;-73
2023/12/21 05:33:37;;;;;;;6.70;3.60;;;;;;;3.59;87.81;98294.64;102931;1257;138790;-73
2023/12/21 05:36:04;;;;;;;6.40;3.30;;;;;;;3.58;88.43;98288.64;103077;1257;96978;-72
2023/12/21 05:38:31;;;;;;;7.40;3.10;;;;;;;3.56;88.41;98282.56;103029;1251;107011;-73
2023/12/21 05:40:59;;;;;;;7.30;3.40;;;;;;;3.56;89.13;98280.12;102962;1255;137872;-73
2023/12/21 05:43:26;;;;;;;6.60;3.60;;;;;;;3.59;89.03;98281.25;103034;1257;110630;-73
2023/12/21 05:45:53;;;;;;;9.00;4.10;;;;;;;3.58;89.45;98277.82;103021;1257;137482;-74
2023/12/21 05:48:19;;;;;;;8.00;3.80;;;;;;;3.53;89.36;98268.71;103169;1256;96574;-72
2023/12/21 05:50:46;;;;;;;7.00;3.80;;;;;;;3.48;89.55;98262.04;103152;1254;106657;-80
2023/12/21 05:53:13;;;;;;;5.10;3.60;;;;;;;3.44;89.70;98264.80;102989;1258;139433;-73
2023/12/21 05:55:40;;;;;;;5.90;4.10;;;;;;;3.39;89.95;98262.86;103056;1254;109193;-72
2023/12/21 05:58:07;;;;;;;5.00;3.90;;;;;;;3.37;90.42;98262.61;103569;1254;137627;-73
2023/12/21 06:00:36;;;;;;;5.50;3.50;;;;;;;3.32;90.53;98257.08;104296;1254;96523;-72
2023/12/21 06:03:03;;;;;;;6.00;3.50;;;;;;;3.30;90.83;98258.39;103184;1251;107824;-71
2023/12/21 06:05:30;;;;;;;4.70;3.40;;;;;;;3.30;90.87;98259.41;103076;1257;137559;-69
2023/12/21 06:07:57;;;;;;;5.20;3.50;;;;;;;3.30;91.28;98257.72;103402;1254;109535;-72
2023/12/21 06:10:24;;;;;;;5.00;3.60;;;;;;;3.29;91.68;98261.87;103780;1254;137665;-71
2023/12/21 06:12:51;;;;;;;4.70;3.20;;;;;;;3.24;91.58;98253.27;103340;1251;96971;-72
2023/12/21 06:15:18;;;;;;;4.90;3.30;;;;;;;3.21;91.94;98245.63;103870;1251;137699;-72
2023/12/21 06:17:45;;;;;;;6.70;3.30;;;;;;;3.18;92.70;98249.35;103054;1257;96474;-71
2023/12/21 06:20:13;;;;;;;5.70;3.00;;;;;;;3.13;92.93;98234.76;104136;1251;110276;-72
2023/12/21 06:22:40;;;;;;;5.70;3.20;;;;;;;3.10;93.27;98233.67;103469;1256;139392;-75
2023/12/21 06:25:11;;;;;;;3.80;2.90;;;;;;;3.08;93.23;98226.52;103291;1254;96333;-78
2023/12/21 06:27:38;;;;;;;4.60;2.50;;;;;;;3.09;93.68;98220.66;103368;1254;137782;-75
2023/12/21 06:30:07;;;;;;;4.50;2.70;;;;;;;3.07;93.77;98229.65;103032;1257;96481;-75
2023/12/21 06:32:34;;;;;;;3.40;2.40;;;;;;;3.04;93.96;98216.19;104550;1254;109574;-77
2023/12/21 06:35:01;;;;;;;3.00;2.10;;;;;;;3.10;94.42;98223.55;104182;1254;138249;-78
2023/12/21 06:37:28;;;;;;;2.60;2.10;;;;;;;3.10;94.31;98213.92;103143;1254;96424;-79
2023/12/21 06:39:55;;;;;;;3.80;2.60;;;;;;;3.09;94.36;98210.36;103128;1251;137763;-73
2023/12/21 06:42:23;;;;;;;2.70;2.10;;;;;;;3.08;94.59;98212.80;102345;1256;96440;-75
2023/12/21 06:44:50;;;;;;;3.80;2.00;;;;;;;3.02;94.40;98195.13;102874;1253;110236;-74
2023/12/21 06:47:16;;;;;;;2.50;2.20;;;;;;;3.03;94.40;98195.42;104007;1257;140788;-75
2023/12/21 06:49:43;;;;;;;3.00;2.10;;;;;;;3.02;94.71;98185.17;102936;1256;97413;-75
2023/12/21 06:52:11;;;;;;;2.50;2.10;;;;;;;3.05;94.69;98189.18;104361;1254;138152;-75
2023/12/21 06:54:38;;;;;;;3.80;2.40;;;;;;;3.07;94.62;98186.05;104444;1254;95027;-74
2023/12/21 06:57:06;;;;;;;3.20;2.20;;;;;;;3.05;94.69;98184.02;104025;1251;109325;-74
2023/12/21 06:59:33;;;;;;;5.00;2.30;;;;;;;3.04;95.00;98175.29;103140;1256;107115;-74
2023/12/21 07:02:00;;;;;;;3.20;2.40;;;;;;;3.04;94.78;98168.09;102991;1257;96941;-75
2023/12/21 07:04:27;;;;;;;3.10;2.00;;;;;;;3.06;95.14;98161.70;102932;1251;137606;-74
2023/12/21 07:06:55;;;;;;;3.40;2.30;;;;;;;3.04;95.44;98160.70;103133;1256;96808;-75
2023/12/21 07:09:22;;;;;;;2.90;2.20;;;;;;;3.04;95.56;98160.72;103017;1251;140037;-74
2023/12/21 07:11:49;;;;;;;2.10;1.90;;;;;;;3.04;95.65;98154.68;102922;1251;108358;-75
2023/12/21 07:14:16;;;;;;;2.80;2.20;;;;;;;3.07;95.45;98149.30;103040;1253;96974;-76
2023/12/21 07:16:43;;;;;;;4.10;2.20;;;;;;;3.10;95.64;98143.02;102911;1254;137746;-76
2023/12/21 07:19:10;;;;;;;2.70;2.10;;;;;;;3.09;96.15;98140.13;103105;1256;96191;-74
2023/12/21 07:21:37;;;;;;;2.80;1.80;;;;;;;3.08;96.23;98132.78;103064;1257;139996;-75
2023/12/21 07:24:05;;;;;;;3.70;2.00;;;;;;;3.09;96.42;98128.29;102987;1257;107096;-74
2023/12/21 07:26:32;;;;;;;2.60;1.80;;;;;;;3.10;96.15;98124.80;103281;1251;96374;-75
2023/12/21 07:29:00;;;;;;;5.30;2.30;;;;;;;3.13;96.13;98122.65;103134;1251;139237;-75
2023/12/21 07:31:27;;;;;;;3.20;2.20;;;;;;;3.14;96.37;98112.98;103214;1254;96439;-74
2023/12/21 07:33:54;;;;;;;2.70;2.30;;;;;;;3.15;96.18;98105.73;103106;1254;138358;-74
2023/12/21 07:36:21;;;;;;;3.10;2.20;;;;;;;3.17;96.48;98103.27;103135;1251;107016;-75
2023/12/21 07:38:48;;;;;;;2.80;2.20;;;;;;;3.15;96.69;98104.55;103228;1251;97116;-75
2023/12/21 07:41:15;;;;;;;2.50;2.00;;;;;;;3.13;96.86;98091.74;102815;1251;138788;-76
2023/12/21 07:43:42;;;;;;;3.50;2.30;;;;;;;3.12;97.04;98089.38;103126;1254;96378;-76
2023/12/21 07:46:10;;;;;;;3.10;2.30;;;;;;;3.15;97.01;98080.31;103124;1256;138317;-75
2023/12/21 07:48:37;;;;;;;2.80;2.10;;;;;;;3.18;97.43;98080.90;103213;1256;107530;-75
2023/12/21 07:51:05;;;;;;;2.40;2.00;;;;;;;3.20;97.39;98077.73;103203;1255;96979;-75
2023/12/21 07:53:32;;;;;;;2.10;1.80;;;;;;;3.22;97.43;98076.25;102915;1256;138541;-76
2023/12/21 07:55:59;;;;;;;3.30;1.90;;;;;;;3.23;97.19;98072.29;103075;1257;96517;-75
2023/12/21 07:58:26;;;;;;;4.20;2.30;;;;;;;3.28;97.34;98067.96;102987;1254;139609;-76
2023/12/21 08:00:53;;;;;;;2.60;2.10;;;;;;;3.33;97.50;98063.99;103029;1253;107896;-75
2023/12/21 08:03:20;;;;;;;2.80;2.10;;;;;;;3.36;97.29;98060.45;103059;1253;138690;-74
2023/12/21 08:05:47;;;;;;;3.60;2.10;;;;;;;3.43;97.46;98047.84;103130;1256;106804;-76
2023/12/21 08:08:15;;;;;;;2.80;2.50;;;;;;;3.44;97.56;98047.44;102996;1253;96426;-76
2023/12/21 08:10:42;;;;;;;3.80;2.60;;;;;;;3.47;97.65;98042.35;103113;1254;138456;-76
2023/12/21 08:13:10;;;;;;;3.40;2.50;;;;;;;3.46;97.58;98031.90;103162;1251;107133;-75
2023/12/21 08:15:37;;;;;;;3.70;2.50;;;;;;;3.47;97.76;98026.88;103098;1253;138369;-76
2023/12/21 08:18:06;;;;;;;2.70;2.30;;;;;;;3.48;97.87;98036.45;103160;1251;107760;-75
2023/12/21 08:20:35;;;;;;;2.80;2.20;;;;;;;3.49;97.77;98023.52;103162;1257;96450;-75
2023/12/21 08:23:03;;;;;;;2.80;2.30;;;;;;;3.51;98.10;98017.09;103084;1251;138365;-76
2023/12/21 08:25:31;;;;;;;3.40;2.30;;;;;;;3.55;97.80;98004.20;103100;1251;108577;-75
2023/12/21 08:27:58;;;;;;;3.50;1.90;;;;;;;3.61;98.05;97998.30;103094;1254;137992;-78
2023/12/21 08:30:26;;;;;;;2.60;2.20;;;;;;;3.63;97.86;98002.36;103894;1251;107631;-77
2023/12/21 08:32:53;;;;;;;2.40;2.00;;;;;;;3.64;97.74;97989.60;104174;1253;95548;-76
2023/12/21 08:35:20;;;;;;;3.10;1.90;;;;;;;3.65;97.80;97981.68;103231;1251;136944;-75
2023/12/21 08:37:47;;;;;;;3.00;2.10;;;;;;;3.65;97.59;97977.36;104659;1253;109449;-76
2023/12/21 08:40:15;;;;;;;4.90;2.10;;;;;;;3.68;97.64;97966.11;103133;1253;136962;-74
2023/12/21 08:42:43;;;;;;;2.70;1.80;;;;;;;3.72;97.78;97968.15;103337;1259;108617;-73
2023/12/21 08:45:12;;;;;;;2.50;1.50;;;;;;;3.72;97.50;97961.45;103248;1257;96472;-77
2023/12/21 08:47:40;;;;;;;2.70;1.90;;;;;;;3.68;97.41;97953.18;104061;1251;108364;-74
2023/12/21 08:50:10;;;;;;;1.80;1.60;;;;;;;3.67;97.75;97940.72;103210;1253;107142;-78
2023/12/21 08:52:38;;;;;;;2.20;1.80;;;;;;;3.64;97.67;97936.52;103109;1254;138205;-78
2023/12/21 08:55:07;;;;;;;2.20;1.50;;;;;;;3.63;97.75;97934.48;103395;1251;107332;-77
2023/12/21 08:57:36;;;;;;;2.70;2.00;;;;;;;3.63;97.96;97920.58;103142;1255;138372;-76
2023/12/21 09:00:05;;;;;;;1.70;1.50;;;;;;;3.64;98.38;97920.55;103474;1250;109926;-75
2023/12/21 09:02:32;;;;;;;1.50;1.30;;;;;;;3.64;98.20;97914.02;104530;1251;109473;-74
2023/12/21 09:04:59;;;;;;;2.60;1.70;;;;;;;3.64;98.19;97904.90;103234;1250;137949;-73
2023/12/21 09:07:27;;;;;;;4.00;1.60;;;;;;;3.63;98.47;97910.59;103123;1254;108183;-72
2023/12/21 09:09:54;;;;;;;3.50;1.70;;;;;;;3.64;98.67;97897.32;103127;1254;141753;-74
2023/12/21 09:12:21;;;;;;;1.80;1.40;;;;;;;3.67;98.54;97896.37;103134;1254;109455;-73
2023/12/21 09:14:48;;;;;;;2.50;1.60;;;;;;;3.69;98.66;97880.31;103268;1251;109532;-72
2023/12/21 09:17:15;;;;;;;2.30;1.60;;;;;;;3.70;98.47;97870.30;103100;1253;137808;-73
2023/12/21 09:19:43;;;;;;;1.80;1.50;;;;;;;3.72;98.28;97859.88;103216;1252;107125;-73
2023/12/21 09:22:10;;;;;;;3.00;1.30;;;;;;;3.68;98.72;97864.69;103063;1250;137798;-75
2023/12/21 09:24:37;;;;;;;3.40;1.50;;;;;;;3.69;98.36;97843.02;103146;1256;109769;-74
2023/12/21 09:27:04;;;;;;;2.70;1.70;;;;;;;3.70;98.61;97845.55;103161;1251;107571;-74
2023/12/21 09:29:30;;;;;;;3.10;1.60;;;;;;;3.73;98.68;97839.38;103084;1251;141073;-72
2023/12/21 09:31:59;;;;;;;1.90;1.60;;;;;;;3.74;98.81;97825.09;103200;1251;107794;-71
2023/12/21 09:34:26;;;;;;;2.00;1.60;;;;;;;3.76;98.79;97825.15;103405;1255;138006;-71
2023/12/21 09:36:53;;;;;;;2.40;1.60;;;;;;;3.79;98.94;97818.67;103562;1256;109550;-73
2023/12/21 09:39:20;;;;;;;1.70;1.30;;;;;;;3.81;99.06;97812.75;103116;1252;138098;-73
2023/12/21 09:41:47;;;;;;;4.00;1.70;;;;;;;3.83;98.81;97796.35;103251;1254;96962;-74
2023/12/21 09:44:27;;;;;;;2.90;1.90;;;;;;;3.88;98.92;97797.30;103325;1251;107211;-73
2023/12/21 09:46:57;;;;;;;6.40;2.20;;;;;;;3.92;98.80;97802.61;103258;1254;137911;-73
2023/12/21 09:49:24;;;;;;;3.30;1.80;;;;;;;3.96;98.68;97787.86;104248;1253;110859;-73
2023/12/21 09:51:52;;;;;;;2.30;1.60;;;;;;;4.00;98.75;97795.75;103115;1254;138082;-73
2023/12/21 09:54:20;;;;;;;2.10;1.40;;;;;;;4.05;98.73;97773.68;103498;1253;98105;-71
2023/12/21 09:56:51;;;;;;;3.10;1.90;;;;;;;4.10;98.88;97769.14;103213;1256;107213;-72
2023/12/21 09:59:18;;;;;;;1.80;1.40;;;;;;;4.10;98.82;97766.55;103034;1253;137873;-76
2023/12/21 10:01:45;;;;;;;2.90;1.60;;;;;;;4.15;98.77;97760.34;103145;1251;109425;-78
2023/12/21 10:04:13;;;;;;;1.90;1.40;;;;;;;4.19;98.68;97755.30;103089;1254;138111;-76
2023/12/21 10:06:41;;;;;;;2.40;1.30;;;;;;;4.25;98.90;97759.67;103334;1251;96443;-76
2023/12/21 10:09:08;;;;;;;3.30;1.90;;;;;;;4.30;98.80;97750.48;103107;1253;107729;-76
2023/12/21 10:11:37;;;;;;;2.30;1.60;;;;;;;4.36;98.75;97736.31;103153;1251;96526;-76
2023/12/21 10:14:07;;;;;;;2.20;1.40;;;;;;;4.37;98.44;97742.61;103145;1253;109978;-75
2023/12/21 10:16:35;;;;;;;2.00;1.70;;;;;;;4.35;98.64;97720.52;103785;1251;140205;-75
2023/12/21 10:19:02;;;;;;;2.30;1.70;;;;;;;4.36;98.86;97725.80;103401;1253;96368;-76
2023/12/21 10:21:30;;;;;;;3.20;1.70;;;;;;;4.37;99.18;97712.34;103146;1256;139082;-75
2023/12/21 10:23:57;;;;;;;1.90;1.60;;;;;;;4.36;99.13;97710.32;103192;1253;96863;-75
2023/12/21 10:26:24;;;;;;;4.00;1.50;;;;;;;4.37;99.20;97707.33;103280;1251;109204;-76
2023/12/21 10:28:55;;;;;;;3.00;1.90;;;;;;;4.36;99.46;97708.59;103075;1251;138022;-77
2023/12/21 10:31:23;;;;;;;2.00;1.50;;;;;;;4.35;99.54;97695.94;103794;1251;95519;-72
2023/12/21 10:33:50;;;;;;;3.70;1.60;;;;;;;4.36;99.46;97681.09;104358;1251;137938;-72
2023/12/21 10:36:17;;;;;;;2.70;1.70;;;;;;;4.37;99.54;97672.25;104650;1251;94842;-73
2023/12/21 10:38:45;;;;;;;2.30;1.80;;;;;;;4.38;99.75;97660.15;103285;1253;111256;-72
2023/12/21 10:41:16;;;;;;;3.00;1.80;;;;;;;4.42;99.96;97651.54;103093;1256;137991;-73
2023/12/21 10:43:44;;;;;;;4.30;1.60;;;;;;;4.44;99.98;97649.36;103228;1257;96440;-73
2023/12/21 10:46:12;;;;;;;2.30;1.70;;;;;;;4.45;100.00;97650.34;102994;1253;138737;-74
2023/12/21 10:48:40;;;;;;;2.60;1.60;;;;;;;4.45;100.00;97643.14;103651;1251;96454;-73
2023/12/21 10:51:09;;;;;;;2.10;1.70;;;;;;;4.47;100.00;97639.04;103109;1254;110950;-72
2023/12/21 10:53:37;;;;;;;2.50;2.10;;;;;;;4.49;100.00;97625.23;103010;1253;138148;-71
2023/12/21 10:56:06;;;;;;;3.20;1.60;;;;;;;4.49;100.00;97619.33;103757;1253;96735;-71
2023/12/21 10:58:34;;;;;;;3.00;1.90;;;;;;;4.53;100.00;97622.59;103047;1254;138191;-71
2023/12/21 11:01:02;;;;;;;3.60;1.90;;;;;;;4.53;100.00;97600.75;103798;1251;96463;-72
2023/12/21 11:03:30;;;;;;;2.40;1.80;;;;;;;4.51;100.00;97603.92;103026;1253;138568;-71
2023/12/21 11:06:00;;;;;;;3.20;2.10;;;;;;;4.48;100.00;97595.80;103171;1255;107838;-79
2023/12/21 11:08:29;;;;;;;4.20;2.10;;;;;;;4.49;100.00;97589.27;103262;1253;96445;-72
2023/12/21 11:10:57;;;;;;;3.40;1.70;;;;;;;4.50;100.00;97581.79;103705;1251;137952;-74
2023/12/21 11:13:24;;;;;;;3.00;2.10;;;;;;;4.55;100.00;97567.27;104537;1251;94692;-75
2023/12/21 11:15:51;;;;;;;2.80;2.10;;;;;;;4.59;100.00;97559.49;103815;1252;138065;-74
2023/12/21 11:18:21;;;;;;;2.20;2.00;;;;;;;4.61;100.00;97554.39;103207;1255;106801;-74
2023/12/21 11:20:51;;;;;;;2.00;1.80;;;;;;;4.67;100.00;97545.64;103168;1251;97785;-74
2023/12/21 11:23:22;;;;;;;2.30;2.00;;;;;;;4.70;100.00;97548.10;103068;1252;138685;-74
2023/12/21 11:25:58;;;;;;;2.30;2.00;;;;;;;4.73;100.00;97541.70;103172;1251;97022;-74